Time;durP1;ratioP1;P1;durP2;ratioP2;P2;SDS_P1;SDS_P2;PMS_P1;PMS_P2;Temp;Humidity;BMP_temperature;BMP_pressure;BME280_temperature;BME280_humidity;BME280_pressure;Samples;Min_cycle;Max_cycle;Signal;HPM_P1;HPM_P2
2021/11/19 00:02:21;;;;;;;4.50;4.10;;;8.10;99.90;;;;;;5114382;28;20219;-70
2021/11/19 00:04:52;;;;;;;5.15;3.65;;;8.10;99.90;;;;;;5111838;28;20649;-68
2021/11/19 00:07:23;;;;;;;4.00;3.20;;;8.00;99.90;;;;;;5088095;28;20216;-69
2021/11/19 00:09:54;;;;;;;4.32;3.80;;;8.00;99.90;;;;;;5092074;28;20698;-76
2021/11/19 00:12:26;;;;;;;4.32;3.92;;;8.00;99.90;;;;;;5098556;28;20212;-70
2021/11/19 00:14:58;;;;;;;3.83;3.53;;;7.90;99.90;;;;;;5091488;28;20309;-73
2021/11/19 00:17:29;;;;;;;5.28;3.75;;;8.00;99.90;;;;;;5089904;28;20212;-75
2021/11/19 00:19:59;;;;;;;6.07;3.60;;;7.90;99.90;;;;;;5105073;28;20211;-70
2021/11/19 00:22:30;;;;;;;3.80;3.40;;;7.80;99.90;;;;;;5089662;28;20216;-74
2021/11/19 00:25:01;;;;;;;4.20;3.90;;;7.80;99.90;;;;;;5092444;28;20236;-71
2021/11/19 00:27:34;;;;;;;4.00;3.60;;;7.80;99.90;;;;;;5101980;27;20236;-73
2021/11/19 00:30:06;;;;;;;6.35;3.78;;;7.80;99.90;;;;;;5085088;28;20208;-73
2021/11/19 00:32:37;;;;;;;4.00;3.63;;;7.80;99.90;;;;;;5086366;28;20227;-70
2021/11/19 00:35:13;;;;;;;5.70;5.13;;;7.80;99.90;;;;;;5104502;28;20208;-71
2021/11/19 00:37:46;;;;;;;5.75;4.45;;;7.80;99.90;;;;;;5096171;28;20219;-74
2021/11/19 00:40:22;;;;;;;6.10;4.28;;;7.70;99.90;;;;;;5089276;28;20617;-74
2021/11/19 00:42:55;;;;;;;5.18;4.75;;;7.70;99.90;;;;;;5099602;28;20215;-73
2021/11/19 00:45:26;;;;;;;4.38;3.97;;;7.80;99.90;;;;;;5105808;28;20224;-74
2021/11/19 00:47:58;;;;;;;4.93;4.53;;;7.70;99.90;;;;;;5096781;28;20216;-73
2021/11/19 00:50:39;;;;;;;5.47;4.95;;;7.80;99.90;;;;;;5096348;28;20238;-70
2021/11/19 00:53:10;;;;;;;5.03;4.47;;;7.70;99.90;;;;;;5092243;28;20282;-73
2021/11/19 00:55:41;;;;;;;6.30;5.70;;;7.70;99.90;;;;;;5092730;28;20658;-70
2021/11/19 00:58:15;;;;;;;6.05;5.13;;;7.60;99.90;;;;;;5092724;28;20244;-70
2021/11/19 01:00:48;;;;;;;5.95;5.45;;;7.60;99.90;;;;;;5104046;28;20216;-69
2021/11/19 01:03:20;;;;;;;5.75;5.35;;;7.50;99.90;;;;;;5079964;28;20308;-71
2021/11/19 01:05:52;;;;;;;6.57;5.88;;;7.50;99.90;;;;;;5087693;28;20228;-70
2021/11/19 01:08:23;;;;;;;6.97;6.32;;;7.50;99.90;;;;;;5090051;28;20219;-71
2021/11/19 01:10:56;;;;;;;6.15;5.65;;;7.50;99.90;;;;;;5088507;28;20208;-70
2021/11/19 01:13:29;;;;;;;6.25;5.70;;;7.50;99.90;;;;;;5090942;28;20330;-71
2021/11/19 01:16:03;;;;;;;5.80;5.13;;;7.50;99.90;;;;;;5089260;28;20208;-70
2021/11/19 01:18:37;;;;;;;5.38;4.93;;;7.50;99.90;;;;;;5088338;28;20226;-72
2021/11/19 01:21:12;;;;;;;5.88;5.28;;;7.40;99.90;;;;;;5102931;28;20313;-73
2021/11/19 01:23:44;;;;;;;6.78;5.30;;;7.40;99.90;;;;;;5098884;28;20227;-71
2021/11/19 01:26:19;;;;;;;6.13;5.43;;;7.30;99.90;;;;;;5086139;28;20598;-71
2021/11/19 01:28:54;;;;;;;5.20;4.80;;;7.30;99.90;;;;;;5097314;28;20581;-74
2021/11/19 01:31:28;;;;;;;5.55;5.07;;;7.10;99.90;;;;;;5090335;28;20570;-73
2021/11/19 01:33:59;;;;;;;6.82;5.65;;;7.10;99.90;;;;;;5089982;28;20216;-72
2021/11/19 01:36:31;;;;;;;8.07;5.38;;;7.00;99.90;;;;;;5099671;28;20516;-71
2021/11/19 01:39:05;;;;;;;7.20;5.97;;;7.00;99.90;;;;;;5100910;28;20212;-72
2021/11/19 01:41:39;;;;;;;5.95;5.38;;;6.90;99.90;;;;;;5090006;28;20215;-68
2021/11/19 01:44:17;;;;;;;6.18;5.60;;;7.00;99.90;;;;;;5088445;28;20227;-68
2021/11/19 01:46:50;;;;;;;6.43;5.70;;;7.00;99.90;;;;;;5102809;28;20234;-68
2021/11/19 01:49:22;;;;;;;6.43;5.93;;;7.00;99.90;;;;;;5091294;28;20208;-72
2021/11/19 01:51:56;;;;;;;5.28;4.78;;;7.00;99.90;;;;;;5085617;28;20209;-68
2021/11/19 01:54:31;;;;;;;6.45;5.90;;;7.00;99.90;;;;;;5088636;28;20216;-68
2021/11/19 01:57:07;;;;;;;6.35;5.85;;;7.00;99.90;;;;;;5089314;28;20210;-68
2021/11/19 01:59:44;;;;;;;8.07;5.97;;;7.00;99.90;;;;;;5099169;28;20695;-70
2021/11/19 02:02:18;;;;;;;7.05;6.40;;;6.90;99.90;;;;;;5088567;28;20670;-69
2021/11/19 02:04:53;;;;;;;6.53;5.93;;;6.80;99.90;;;;;;5085457;28;20694;-71
2021/11/19 02:07:28;;;;;;;6.57;6.03;;;6.80;99.90;;;;;;5097612;28;20223;-75
2021/11/19 02:10:05;;;;;;;8.23;5.93;;;6.70;99.90;;;;;;5093637;28;20216;-72
2021/11/19 02:12:45;;;;;;;6.90;6.20;;;6.70;99.90;;;;;;5088684;28;20212;-69
2021/11/19 02:15:22;;;;;;;7.68;6.78;;;6.70;99.90;;;;;;5078730;28;20238;-69
2021/11/19 02:17:57;;;;;;;7.55;6.18;;;6.70;99.90;;;;;;5074468;28;20224;-71
2021/11/19 02:20:32;;;;;;;8.02;6.85;;;6.70;99.90;;;;;;5088089;28;20212;-68
2021/11/19 02:23:08;;;;;;;8.80;8.00;;;6.70;99.90;;;;;;5102172;28;20217;-68
2021/11/19 02:25:43;;;;;;;8.75;7.68;;;6.60;99.90;;;;;;5091269;28;20216;-68
2021/11/19 02:28:17;;;;;;;8.60;7.70;;;6.50;99.90;;;;;;5093125;28;20589;-69
2021/11/19 02:30:54;;;;;;;8.40;7.65;;;6.50;99.90;;;;;;5079115;28;20577;-68
2021/11/19 02:33:30;;;;;;;9.23;8.40;;;6.50;99.90;;;;;;5097439;28;20223;-69
2021/11/19 02:36:03;;;;;;;8.95;8.13;;;6.50;99.90;;;;;;5096698;28;20215;-70
2021/11/19 02:38:37;;;;;;;9.88;8.95;;;6.40;99.90;;;;;;5102955;28;20695;-70
2021/11/19 02:41:09;;;;;;;10.10;9.18;;;6.40;99.90;;;;;;5106697;28;20211;-72
2021/11/19 02:43:42;;;;;;;10.32;9.40;;;6.40;99.90;;;;;;5102071;28;20219;-68
2021/11/19 02:46:20;;;;;;;12.57;8.80;;;6.40;99.90;;;;;;5102187;28;20228;-69
2021/11/19 02:48:51;;;;;;;9.98;8.65;;;6.50;99.90;;;;;;5095449;28;20213;-67
2021/11/19 02:51:22;;;;;;;9.50;8.50;;;6.50;99.90;;;;;;5086782;28;20209;-68
2021/11/19 02:53:54;;;;;;;9.27;8.38;;;6.50;99.90;;;;;;5088984;28;20709;-68
2021/11/19 02:56:26;;;;;;;8.82;8.02;;;6.50;99.90;;;;;;5091296;28;20212;-68
2021/11/19 02:59:00;;;;;;;9.00;8.20;;;6.50;99.90;;;;;;5093280;28;20693;-68
2021/11/19 03:01:35;;;;;;;8.65;7.95;;;6.50;99.90;;;;;;5095828;28;20682;-68
2021/11/19 03:04:12;;;;;;;9.20;8.40;;;6.50;99.90;;;;;;5091396;28;20686;-70
2021/11/19 03:06:45;;;;;;;8.40;7.70;;;6.40;99.90;;;;;;5103663;28;20224;-74
2021/11/19 03:09:18;;;;;;;8.43;7.68;;;6.40;99.90;;;;;;5091554;28;20226;-73
2021/11/19 03:11:49;;;;;;;9.30;8.50;;;6.50;99.90;;;;;;5105301;28;20216;-68
2021/11/19 03:14:22;;;;;;;9.88;8.88;;;6.50;99.90;;;;;;5096720;28;20571;-68
2021/11/19 03:16:56;;;;;;;9.18;8.38;;;6.50;99.90;;;;;;5100824;28;20308;-69
2021/11/19 03:19:27;;;;;;;9.73;8.82;;;6.50;99.90;;;;;;5093365;28;20697;-71
2021/11/19 03:21:59;;;;;;;9.00;8.18;;;6.60;99.90;;;;;;5089280;28;20255;-71
2021/11/19 03:24:30;;;;;;;9.02;8.13;;;6.50;99.90;;;;;;5090403;28;20675;-68
2021/11/19 03:27:01;;;;;;;8.80;8.00;;;6.40;99.90;;;;;;5090650;28;20232;-68
2021/11/19 03:29:32;;;;;;;9.93;9.13;;;6.50;99.90;;;;;;5102756;28;20219;-68
2021/11/19 03:32:05;;;;;;;9.27;8.57;;;6.50;99.90;;;;;;5091596;28;20209;-72
2021/11/19 03:34:37;;;;;;;9.13;8.43;;;6.50;99.90;;;;;;5100682;28;20208;-67
2021/11/19 03:37:08;;;;;;;9.57;8.73;;;6.50;99.90;;;;;;5097184;28;20237;-71
2021/11/19 03:39:39;;;;;;;10.02;9.13;;;6.50;99.90;;;;;;5089690;28;20227;-68
2021/11/19 03:42:11;;;;;;;11.32;10.23;;;6.50;99.90;;;;;;5092832;28;20227;-72
2021/11/19 03:44:48;;;;;;;10.65;9.55;;;6.50;99.90;;;;;;5090308;28;20217;-70
2021/11/19 03:47:23;;;;;;;10.68;9.57;;;6.50;99.90;;;;;;5091271;28;20677;-68
2021/11/19 03:49:56;;;;;;;9.93;9.05;;;6.50;99.90;;;;;;5093931;28;20715;-68
2021/11/19 03:52:28;;;;;;;12.23;9.38;;;6.50;99.90;;;;;;5096787;28;20212;-68
2021/11/19 03:55:11;;;;;;;11.35;10.13;;;6.40;99.90;;;;;;5101048;28;20231;-68
2021/11/19 03:57:42;;;;;;;9.93;9.02;;;6.40;99.90;;;;;;5091820;28;20205;-68
2021/11/19 04:00:16;;;;;;;11.02;9.85;;;6.40;99.90;;;;;;5087928;28;20221;-68
2021/11/19 04:02:49;;;;;;;10.38;9.48;;;6.40;99.90;;;;;;5091829;28;20544;-74
2021/11/19 04:05:20;;;;;;;11.43;9.90;;;6.50;99.90;;;;;;5089020;28;20305;-69
2021/11/19 04:07:51;;;;;;;9.93;9.00;;;6.50;99.90;;;;;;5091379;28;20236;-68
2021/11/19 04:10:22;;;;;;;11.60;10.45;;;6.50;99.90;;;;;;5100310;28;20319;-68
2021/11/19 04:12:54;;;;;;;12.40;11.13;;;6.50;99.90;;;;;;5089754;28;20215;-68
2021/11/19 04:15:30;;;;;;;10.82;9.82;;;6.60;99.90;;;;;;5091217;28;20238;-70
2021/11/19 04:18:03;;;;;;;9.82;8.95;;;6.70;99.90;;;;;;5099583;28;20212;-68
2021/11/19 04:20:34;;;;;;;10.30;9.32;;;6.70;99.90;;;;;;5110585;28;20576;-76
2021/11/19 04:23:05;;;;;;;11.38;10.13;;;6.70;99.90;;;;;;5107390;27;20242;-69
2021/11/19 04:25:36;;;;;;;10.10;9.13;;;6.70;99.90;;;;;;5100233;28;20221;-73
2021/11/19 04:28:08;;;;;;;9.45;8.65;;;6.70;99.90;;;;;;5095923;28;20242;-69
2021/11/19 04:30:43;;;;;;;9.95;9.15;;;6.70;99.90;;;;;;5088906;28;20248;-69
2021/11/19 04:33:17;;;;;;;10.05;9.15;;;6.60;99.90;;;;;;5087242;28;20324;-70
2021/11/19 04:35:49;;;;;;;9.32;8.50;;;6.60;99.90;;;;;;5087683;28;20222;-69
2021/11/19 04:38:20;;;;;;;10.02;9.05;;;6.70;99.90;;;;;;5102662;28;20212;-72
2021/11/19 04:40:52;;;;;;;10.13;9.15;;;6.70;99.90;;;;;;5086329;28;20298;-68
2021/11/19 04:43:25;;;;;;;9.48;8.57;;;6.70;99.90;;;;;;5081282;28;20216;-67
2021/11/19 04:45:56;;;;;;;8.55;7.75;;;6.70;99.90;;;;;;5091577;28;20216;-68
2021/11/19 04:48:32;;;;;;;7.65;7.00;;;6.70;99.90;;;;;;5093210;28;20231;-67
2021/11/19 04:51:04;;;;;;;9.05;8.20;;;6.70;99.90;;;;;;5095262;28;20208;-68
2021/11/19 04:53:35;;;;;;;8.80;7.80;;;6.80;99.90;;;;;;5089832;28;20235;-69
2021/11/19 04:56:07;;;;;;;9.05;7.95;;;6.80;99.90;;;;;;5088861;28;20212;-68
2021/11/19 04:58:38;;;;;;;9.00;8.10;;;6.80;99.90;;;;;;5090118;28;20745;-69
2021/11/19 05:01:13;;;;;;;8.57;7.78;;;6.90;99.90;;;;;;5100061;28;20556;-77
2021/11/19 05:03:46;;;;;;;8.93;8.05;;;7.00;99.90;;;;;;5074276;28;20204;-69
2021/11/19 05:06:17;;;;;;;8.25;7.57;;;6.90;99.90;;;;;;5096289;28;20208;-72
2021/11/19 05:08:48;;;;;;;10.93;8.70;;;7.00;99.90;;;;;;5105003;28;20224;-71
2021/11/19 05:11:26;;;;;;;8.80;8.00;;;7.00;99.90;;;;;;5090600;28;20288;-69
2021/11/19 05:13:58;;;;;;;8.95;7.78;;;7.10;99.90;;;;;;5102133;28;20208;-68
2021/11/19 05:16:30;;;;;;;9.77;8.23;;;7.00;99.90;;;;;;5100458;28;20246;-74
2021/11/19 05:19:02;;;;;;;8.65;7.85;;;7.10;99.90;;;;;;5096380;28;20208;-68
2021/11/19 05:21:34;;;;;;;9.63;7.55;;;7.10;99.90;;;;;;5103998;28;20626;-75
2021/11/19 05:24:08;;;;;;;8.40;7.70;;;7.00;99.90;;;;;;5089187;28;20601;-69
2021/11/19 05:26:40;;;;;;;8.93;8.02;;;7.10;99.90;;;;;;5100721;28;20228;-70
2021/11/19 05:29:11;;;;;;;9.27;7.32;;;7.10;99.90;;;;;;5097538;28;20580;-68
2021/11/19 05:31:43;;;;;;;9.02;6.72;;;7.00;99.90;;;;;;5087297;28;20219;-70
2021/11/19 05:34:16;;;;;;;8.30;7.63;;;7.10;99.90;;;;;;5100656;28;20220;-69
2021/11/19 05:36:48;;;;;;;9.18;7.88;;;7.10;99.90;;;;;;5109683;28;20215;-68
2021/11/19 05:39:19;;;;;;;7.90;7.20;;;7.10;99.90;;;;;;5104628;28;20208;-69
2021/11/19 05:41:51;;;;;;;8.25;7.65;;;7.20;99.90;;;;;;5094280;28;20679;-68
2021/11/19 05:44:22;;;;;;;7.22;6.53;;;7.30;99.90;;;;;;5099110;28;20216;-68
2021/11/19 05:46:53;;;;;;;7.50;6.80;;;7.30;99.90;;;;;;5105872;28;20553;-68
2021/11/19 05:49:26;;;;;;;7.15;6.45;;;7.30;99.90;;;;;;5085850;28;20231;-72
2021/11/19 05:52:00;;;;;;;7.90;7.20;;;7.30;99.90;;;;;;5090010;28;20220;-69
2021/11/19 05:54:33;;;;;;;8.00;7.30;;;7.20;99.90;;;;;;5087752;28;20261;-74
2021/11/19 05:57:07;;;;;;;6.85;6.32;;;7.20;99.90;;;;;;5092281;28;20557;-69
2021/11/19 05:59:38;;;;;;;8.15;7.35;;;7.20;99.90;;;;;;5093787;28;20205;-69
2021/11/19 06:02:12;;;;;;;8.82;8.02;;;7.30;99.90;;;;;;5090643;28;20696;-70
2021/11/19 06:04:45;;;;;;;7.78;7.05;;;7.40;99.90;;;;;;5103434;28;20260;-72
2021/11/19 06:07:16;;;;;;;7.70;7.00;;;7.40;99.90;;;;;;5100714;28;20215;-73
2021/11/19 06:09:49;;;;;;;7.55;6.85;;;7.30;99.90;;;;;;5091557;28;20223;-68
2021/11/19 06:12:24;;;;;;;7.38;6.78;;;7.40;99.90;;;;;;5113748;28;20558;-69
2021/11/19 06:14:58;;;;;;;7.65;6.95;;;7.40;99.90;;;;;;5100085;28;20219;-68
2021/11/19 06:17:33;;;;;;;7.30;6.70;;;7.50;99.90;;;;;;5093774;28;20217;-69
2021/11/19 06:20:14;;;;;;;7.43;6.82;;;7.50;99.90;;;;;;5088213;28;20208;-69
2021/11/19 06:22:48;;;;;;;7.60;6.43;;;7.50;99.90;;;;;;5089487;28;20215;-72
2021/11/19 06:25:23;;;;;;;7.85;7.15;;;7.60;99.90;;;;;;5102650;27;20216;-70
2021/11/19 06:27:59;;;;;;;7.97;7.20;;;7.60;99.90;;;;;;5103591;28;20227;-69
2021/11/19 06:30:31;;;;;;;7.47;6.78;;;7.70;99.90;;;;;;5096837;28;20223;-68
2021/11/19 06:33:02;;;;;;;7.60;6.85;;;7.70;99.90;;;;;;5095905;28;20224;-67
2021/11/19 06:35:35;;;;;;;7.55;6.95;;;7.70;99.90;;;;;;5087091;28;20226;-70
2021/11/19 06:38:06;;;;;;;6.85;6.15;;;7.70;99.90;;;;;;5098428;28;20220;-68
2021/11/19 06:40:37;;;;;;;7.40;6.80;;;7.70;99.90;;;;;;5089926;28;20220;-68
2021/11/19 06:43:08;;;;;;;7.90;7.13;;;7.70;99.90;;;;;;5096119;28;20674;-70
2021/11/19 06:45:39;;;;;;;7.50;6.90;;;7.80;99.90;;;;;;5089212;28;20223;-68
2021/11/19 06:48:10;;;;;;;7.47;6.78;;;7.80;99.90;;;;;;5094427;28;20212;-68
2021/11/19 06:50:44;;;;;;;7.45;6.70;;;7.80;99.90;;;;;;5091726;28;20666;-68
2021/11/19 06:53:17;;;;;;;7.18;6.57;;;7.80;99.90;;;;;;5094607;28;20212;-69
2021/11/19 06:55:48;;;;;;;7.10;6.55;;;7.90;99.90;;;;;;5095016;28;20674;-69
2021/11/19 06:58:19;;;;;;;7.00;6.45;;;7.90;99.90;;;;;;5091140;28;20538;-70
2021/11/19 07:00:50;;;;;;;8.45;7.32;;;8.00;99.90;;;;;;5092924;28;20223;-70
2021/11/19 07:03:21;;;;;;;7.68;6.97;;;8.00;99.90;;;;;;5084022;28;20212;-68
2021/11/19 07:05:54;;;;;;;8.05;7.25;;;8.00;99.90;;;;;;5094288;28;20690;-69
2021/11/19 07:08:25;;;;;;;7.97;7.18;;;8.10;99.90;;;;;;5113236;28;20681;-68
2021/11/19 07:10:58;;;;;;;7.63;7.00;;;8.10;99.90;;;;;;5085427;28;20208;-68
2021/11/19 07:13:29;;;;;;;7.63;6.95;;;8.10;99.90;;;;;;5102798;28;20216;-70
2021/11/19 07:16:00;;;;;;;8.52;7.72;;;8.20;99.90;;;;;;5094160;27;20295;-72
2021/11/19 07:18:32;;;;;;;8.60;7.80;;;8.20;99.90;;;;;;5092606;28;20208;-69
2021/11/19 07:21:05;;;;;;;8.10;7.40;;;8.20;99.90;;;;;;5100931;28;20213;-68
2021/11/19 07:23:36;;;;;;;9.07;8.25;;;8.10;99.90;;;;;;5103277;28;20211;-70
2021/11/19 07:26:07;;;;;;;8.07;7.30;;;8.10;99.90;;;;;;5089517;28;20226;-74
2021/11/19 07:28:37;;;;;;;9.40;8.50;;;8.20;99.90;;;;;;5091331;28;20783;-68
2021/11/19 07:31:10;;;;;;;8.95;8.15;;;8.20;99.90;;;;;;5090682;28;20221;-78
2021/11/19 07:33:41;;;;;;;9.07;8.27;;;8.20;99.90;;;;;;5092570;28;20299;-69
2021/11/19 07:36:15;;;;;;;9.93;8.93;;;8.30;99.90;;;;;;5094898;28;20633;-68
2021/11/19 07:38:46;;;;;;;8.85;8.05;;;8.30;99.90;;;;;;5106829;28;20216;-69
2021/11/19 07:41:20;;;;;;;10.13;9.10;;;8.20;99.90;;;;;;5093675;28;20307;-68
2021/11/19 07:43:51;;;;;;;9.48;8.57;;;8.20;99.90;;;;;;5093174;28;20220;-70
2021/11/19 07:46:25;;;;;;;10.50;9.50;;;8.20;99.90;;;;;;5098692;28;20665;-70
2021/11/19 07:48:56;;;;;;;8.80;8.00;;;8.30;99.90;;;;;;5112311;28;20276;-76
2021/11/19 07:51:31;;;;;;;10.15;9.15;;;8.30;99.90;;;;;;5080640;28;20208;-70
2021/11/19 07:54:03;;;;;;;10.02;9.00;;;8.30;99.90;;;;;;5096570;28;20219;-69
2021/11/19 07:56:35;;;;;;;10.10;9.20;;;8.30;99.90;;;;;;5094713;28;20209;-76
2021/11/19 07:59:08;;;;;;;9.77;8.80;;;8.20;99.90;;;;;;5088526;28;20248;-70
2021/11/19 08:01:40;;;;;;;8.98;8.18;;;8.20;99.90;;;;;;5084312;28;20219;-69
2021/11/19 08:04:11;;;;;;;9.07;8.18;;;8.20;99.90;;;;;;5090038;28;20258;-69
2021/11/19 08:06:45;;;;;;;9.93;9.02;;;8.30;99.90;;;;;;5090614;28;20646;-69
2021/11/19 08:09:16;;;;;;;9.23;8.43;;;8.30;99.90;;;;;;5088770;28;20235;-70
2021/11/19 08:11:47;;;;;;;9.45;8.63;;;8.30;99.90;;;;;;5096011;28;20215;-74
2021/11/19 08:14:18;;;;;;;9.82;8.90;;;8.40;99.90;;;;;;5101515;28;20234;-71
2021/11/19 08:16:52;;;;;;;10.07;9.10;;;8.30;99.90;;;;;;5111543;28;20654;-70
2021/11/19 08:19:25;;;;;;;9.25;8.40;;;8.30;99.90;;;;;;5086112;28;20269;-69
2021/11/19 08:22:00;;;;;;;8.65;7.88;;;8.40;99.90;;;;;;5105776;28;20212;-72
2021/11/19 08:24:32;;;;;;;9.75;8.50;;;8.30;99.90;;;;;;5102529;28;20284;-69
2021/11/19 08:27:06;;;;;;;9.73;8.73;;;8.30;99.90;;;;;;5095798;28;20223;-75
2021/11/19 08:29:39;;;;;;;8.70;7.90;;;8.40;99.90;;;;;;5100191;28;20243;-70
2021/11/19 08:32:11;;;;;;;9.20;8.25;;;8.40;99.90;;;;;;5089550;28;20623;-68
2021/11/19 08:34:42;;;;;;;8.10;7.40;;;8.50;99.90;;;;;;5101623;28;20226;-68
2021/11/19 08:37:14;;;;;;;8.80;8.10;;;8.50;99.90;;;;;;5088938;28;20212;-69
2021/11/19 08:39:46;;;;;;;8.90;8.10;;;8.70;99.90;;;;;;5083197;28;20212;-68
2021/11/19 08:42:17;;;;;;;9.00;8.10;;;8.70;99.90;;;;;;5096757;28;20308;-68
2021/11/19 08:44:49;;;;;;;9.98;9.07;;;8.80;99.90;;;;;;5088315;28;20222;-72
2021/11/19 08:47:39;;;;;;;9.75;8.85;;;8.80;99.90;;;;;;5092365;28;20606;-68
2021/11/19 08:50:12;;;;;;;8.45;7.72;;;8.80;99.90;;;;;;5079250;28;20220;-70
2021/11/19 08:52:45;;;;;;;9.50;8.60;;;8.80;99.90;;;;;;5089135;28;20212;-71
2021/11/19 08:55:17;;;;;;;8.77;7.97;;;8.80;99.90;;;;;;5097062;28;20212;-72
2021/11/19 08:57:48;;;;;;;8.88;8.07;;;8.90;99.90;;;;;;5098539;28;20230;-70
2021/11/19 09:00:27;;;;;;;8.20;7.50;;;8.90;99.90;;;;;;5089095;28;20204;-70
2021/11/19 09:03:00;;;;;;;9.52;8.23;;;8.90;99.90;;;;;;5111301;28;20677;-70
2021/11/19 09:05:32;;;;;;;7.43;6.72;;;9.00;99.90;;;;;;5086263;28;20673;-70
2021/11/19 09:08:07;;;;;;;7.85;7.15;;;9.10;99.90;;;;;;5090777;28;20212;-69
2021/11/19 09:10:39;;;;;;;7.63;6.93;;;9.20;99.90;;;;;;5082021;28;20253;-71
2021/11/19 09:13:10;;;;;;;8.25;7.55;;;9.30;99.90;;;;;;5097638;28;20584;-68
2021/11/19 09:15:41;;;;;;;6.10;5.63;;;9.40;99.90;;;;;;5093024;28;20208;-70
2021/11/19 09:18:26;;;;;;;7.13;6.50;;;9.50;99.90;;;;;;5090690;28;20216;-69
2021/11/19 09:21:10;;;;;;;7.45;6.60;;;9.70;99.90;;;;;;5100782;28;20311;-72
2021/11/19 09:23:46;;;;;;;6.28;5.78;;;9.80;99.90;;;;;;5090570;28;20358;-69
2021/11/19 09:26:19;;;;;;;5.65;5.15;;;10.00;99.90;;;;;;5081449;28;20607;-68
2021/11/19 09:28:53;;;;;;;6.18;5.65;;;10.20;99.90;;;;;;5091443;28;20236;-68
2021/11/19 09:31:25;;;;;;;5.50;5.00;;;10.30;99.90;;;;;;5105716;28;20227;-68
2021/11/19 09:33:56;;;;;;;5.87;5.40;;;10.40;99.90;;;;;;5095578;28;20212;-68
2021/11/19 09:36:27;;;;;;;4.73;4.33;;;10.50;99.90;;;;;;5092897;28;20487;-68
2021/11/19 09:39:00;;;;;;;4.80;4.30;;;10.50;99.90;;;;;;5084026;28;20451;-68
2021/11/19 09:41:57;;;;;;;5.05;4.50;;;10.60;99.90;;;;;;5090152;28;20460;-71
2021/11/19 09:45:04;;;;;;;3.17;2.97;;;10.70;99.90;;;;;;5088642;28;20223;-69
2021/11/19 09:48:08;;;;;;;3.28;3.03;;;10.90;99.90;;;;;;5083410;28;20216;-69
2021/11/19 09:51:10;;;;;;;3.13;2.93;;;11.00;99.90;;;;;;5091667;28;20231;-69
2021/11/19 09:54:32;;;;;;;2.60;2.40;;;11.10;99.90;;;;;;5081723;28;20472;-68
2021/11/19 09:57:34;;;;;;;2.37;2.17;;;11.20;99.90;;;;;;5083212;28;20446;-69
2021/11/19 10:00:22;;;;;;;2.53;2.33;;;11.30;99.90;;;;;;5096494;28;20480;-72
2021/11/19 10:03:15;;;;;;;1.70;1.60;;;11.30;99.90;;;;;;5103354;28;20453;-70
2021/11/19 10:05:54;;;;;;;1.80;1.70;;;11.40;99.90;;;;;;5084745;28;20533;-69
2021/11/19 10:08:53;;;;;;;1.67;1.57;;;11.40;99.90;;;;;;5101188;28;20480;-69
2021/11/19 10:11:29;;;;;;;1.93;1.83;;;11.50;99.90;;;;;;5070600;28;20485;-70
2021/11/19 10:14:18;;;;;;;1.50;1.40;;;11.50;99.90;;;;;;5101037;28;20456;-69
2021/11/19 10:17:05;;;;;;;1.77;1.67;;;11.60;99.90;;;;;;5089796;28;20454;-71
2021/11/19 10:19:39;;;;;;;2.13;1.90;;;11.70;99.90;;;;;;5093447;28;20939;-68
2021/11/19 10:22:20;;;;;;;1.57;1.47;;;11.70;99.90;;;;;;5094549;28;20449;-72
2021/11/19 10:24:56;;;;;;;1.67;1.57;;;11.80;99.90;;;;;;5080990;28;20486;-73
2021/11/19 10:27:29;;;;;;;1.17;1.17;;;11.70;99.90;;;;;;5081969;28;20988;-70
2021/11/19 10:30:10;;;;;;;1.40;1.30;;;11.80;99.90;;;;;;5102821;28;20457;-69
2021/11/19 10:32:41;;;;;;;1.63;1.23;;;11.80;99.90;;;;;;5102611;28;20480;-68
2021/11/19 10:35:30;;;;;;;1.03;1.03;;;11.80;99.90;;;;;;5090191;28;20454;-71
2021/11/19 10:38:46;;;;;;;2.30;1.20;;;11.90;99.90;;;;;;5075630;28;20462;-69
2021/11/19 10:42:40;;;;;;;1.33;1.23;;;11.90;99.90;;;;;;5090071;28;20445;-75
2021/11/19 10:45:45;;;;;;;2.33;1.40;;;12.00;99.90;;;;;;5089319;28;20461;-71
2021/11/19 10:48:49;;;;;;;0.90;0.90;;;12.00;99.90;;;;;;5093526;28;20461;-74
2021/11/19 10:51:47;;;;;;;1.30;0.97;;;12.00;99.90;;;;;;5087655;28;20481;-70
2021/11/19 10:54:54;;;;;;;0.90;0.90;;;12.00;99.90;;;;;;5093156;28;20450;-71
2021/11/19 10:58:00;;;;;;;1.30;1.20;;;12.00;99.90;;;;;;5102446;28;20449;-75
2021/11/19 11:00:43;;;;;;;1.50;1.00;;;12.10;99.90;;;;;;5089875;28;20461;-71
2021/11/19 11:03:18;;;;;;;1.10;1.00;;;12.10;99.90;;;;;;5096427;28;20519;-77
2021/11/19 11:05:58;;;;;;;0.70;0.70;;;12.20;99.90;;;;;;5090746;28;20454;-78
2021/11/19 11:08:31;;;;;;;0.97;0.97;;;12.10;99.90;;;;;;5083264;28;20454;-70
2021/11/19 11:11:05;;;;;;;0.90;0.80;;;12.10;99.90;;;;;;5097297;28;20481;-70
2021/11/19 11:13:39;;;;;;;2.10;1.27;;;12.10;99.90;;;;;;5102067;28;20473;-71
2021/11/19 11:16:25;;;;;;;0.50;0.50;;;12.10;99.90;;;;;;5099866;28;20460;-70
2021/11/19 11:19:00;;;;;;;0.83;0.83;;;12.20;99.90;;;;;;5101690;28;20464;-70
2021/11/19 11:21:34;;;;;;;1.53;0.87;;;12.10;99.90;;;;;;5081946;28;20446;-74
2021/11/19 11:24:22;;;;;;;1.43;1.33;;;12.10;99.90;;;;;;5091075;28;20799;-70
2021/11/19 11:26:55;;;;;;;0.60;0.60;;;12.20;99.90;;;;;;5091061;28;20446;-70
2021/11/19 11:29:40;;;;;;;0.60;0.50;;;12.20;99.90;;;;;;5092585;28;20917;-71
2021/11/19 11:32:25;;;;;;;0.70;0.70;;;12.20;99.90;;;;;;5102097;28;20478;-69
2021/11/19 11:35:04;;;;;;;0.70;0.70;;;12.20;99.90;;;;;;5093888;28;20463;-70
2021/11/19 11:38:00;;;;;;;0.80;0.60;;;12.20;99.90;;;;;;5092170;28;20450;-74
2021/11/19 11:40:38;;;;;;;0.67;0.67;;;12.20;99.90;;;;;;5092575;28;20455;-72
2021/11/19 11:43:31;;;;;;;0.90;0.60;;;12.20;99.90;;;;;;5100000;28;20486;-70
2021/11/19 11:46:16;;;;;;;1.03;0.50;;;12.20;99.90;;;;;;5094177;28;20538;-71
2021/11/19 11:49:14;;;;;;;0.60;0.60;;;12.20;99.90;;;;;;5085387;28;20872;-70
2021/11/19 11:52:06;;;;;;;0.80;0.80;;;12.20;99.90;;;;;;5083645;28;20478;-70
2021/11/19 11:54:53;;;;;;;0.70;0.50;;;12.20;99.90;;;;;;5082580;28;20927;-76
2021/11/19 11:57:51;;;;;;;1.03;0.67;;;12.20;99.90;;;;;;5080973;28;20450;-71
2021/11/19 12:00:32;;;;;;;0.60;0.50;;;12.20;99.90;;;;;;5095848;28;20453;-70
2021/11/19 12:03:19;;;;;;;0.80;0.80;;;12.20;99.90;;;;;;5095290;28;20450;-69
2021/11/19 12:05:56;;;;;;;0.60;0.60;;;12.10;99.90;;;;;;5089136;28;20453;-70
2021/11/19 12:08:53;;;;;;;0.63;0.50;;;12.10;99.90;;;;;;5091262;28;20453;-69
2021/11/19 12:11:59;;;;;;;2.33;0.87;;;12.00;99.90;;;;;;5089874;28;20556;-72
2021/11/19 12:14:40;;;;;;;0.50;0.43;;;12.00;99.90;;;;;;5090592;28;20462;-73
2021/11/19 12:17:25;;;;;;;1.03;0.50;;;12.00;99.90;;;;;;5095639;28;20820;-70
2021/11/19 12:20:03;;;;;;;0.87;0.60;;;11.90;99.90;;;;;;5090533;28;20536;-70
2021/11/19 12:22:46;;;;;;;0.50;0.50;;;11.90;99.90;;;;;;5091401;28;20446;-72
2021/11/19 12:25:46;;;;;;;0.50;0.50;;;11.90;99.90;;;;;;5088013;28;20462;-70
2021/11/19 12:28:18;;;;;;;0.40;0.30;;;11.90;99.90;;;;;;5087869;28;20470;-68
2021/11/19 12:30:55;;;;;;;0.47;0.40;;;11.90;99.90;;;;;;5090564;28;20442;-70
2021/11/19 12:33:33;;;;;;;0.40;0.40;;;11.80;99.90;;;;;;5096038;28;20450;-70
2021/11/19 12:36:08;;;;;;;0.60;0.43;;;11.90;99.90;;;;;;5091259;28;20507;-69
2021/11/19 12:38:43;;;;;;;0.50;0.50;;;11.80;99.90;;;;;;5083557;28;20459;-68
2021/11/19 12:41:23;;;;;;;0.40;0.40;;;11.80;99.90;;;;;;5088648;28;20790;-71
2021/11/19 12:44:26;;;;;;;0.83;0.53;;;11.70;99.90;;;;;;5102255;28;20454;-70
2021/11/19 12:47:18;;;;;;;1.70;0.57;;;11.70;99.90;;;;;;5091012;28;20456;-71
2021/11/19 12:50:17;;;;;;;0.40;0.30;;;11.70;99.90;;;;;;5081078;28;20447;-74
2021/11/19 12:53:17;;;;;;;0.47;0.47;;;11.70;99.90;;;;;;5082891;28;20486;-70
2021/11/19 12:56:12;;;;;;;0.50;0.50;;;11.60;99.90;;;;;;5087489;28;20876;-69
2021/11/19 12:58:46;;;;;;;0.50;0.43;;;11.60;99.90;;;;;;5094196;28;20795;-70
2021/11/19 13:01:31;;;;;;;0.73;0.40;;;11.50;99.90;;;;;;5080024;28;20454;-72
2021/11/19 13:04:29;;;;;;;0.60;0.50;;;11.50;99.90;;;;;;5094189;28;20453;-69
2021/11/19 13:07:06;;;;;;;1.37;0.50;;;11.50;99.90;;;;;;5097015;28;20454;-73
2021/11/19 13:09:54;;;;;;;0.70;0.40;;;11.40;99.90;;;;;;5096217;28;20455;-69
2021/11/19 13:12:56;;;;;;;0.70;0.70;;;11.40;99.90;;;;;;5090527;28;20509;-68
2021/11/19 13:15:41;;;;;;;0.50;0.50;;;11.30;99.90;;;;;;5089151;28;20458;-69
2021/11/19 13:18:39;;;;;;;0.33;0.33;;;11.30;99.90;;;;;;5091029;28;20456;-70
2021/11/19 13:21:46;;;;;;;0.63;0.23;;;11.20;99.90;;;;;;5088610;28;20485;-68
2021/11/19 13:24:56;;;;;;;0.40;0.37;;;11.20;99.90;;;;;;5093821;28;20767;-68
2021/11/19 13:27:51;;;;;;;0.70;0.60;;;11.20;99.90;;;;;;5074395;28;20481;-69
2021/11/19 13:30:48;;;;;;;0.77;0.40;;;11.20;99.90;;;;;;5088502;28;20450;-69
2021/11/19 13:33:26;;;;;;;0.85;0.30;;;11.20;99.90;;;;;;5091655;28;20484;-68
2021/11/19 13:36:08;;;;;;;0.60;0.60;;;11.10;99.90;;;;;;5089681;28;20223;-69
2021/11/19 13:39:11;;;;;;;0.60;0.40;;;11.10;99.90;;;;;;5092820;28;20454;-69
2021/11/19 13:42:03;;;;;;;0.40;0.30;;;11.10;99.90;;;;;;5083239;28;20516;-69
2021/11/19 13:44:59;;;;;;;0.40;0.20;;;11.00;99.90;;;;;;5087292;28;20465;-73
2021/11/19 13:47:55;;;;;;;0.50;0.27;;;11.00;99.90;;;;;;5088630;28;20890;-78